Time;durP1;ratioP1;P1;durP2;ratioP2;P2;SDS_P1;SDS_P2;PMS_P1;PMS_P2;Temp;Humidity;BMP_temperature;BMP_pressure;BME280_temperature;BME280_humidity;BME280_pressure;Samples;Min_cycle;Max_cycle;Signal;HPM_P1;HPM_P2
2021/04/23 00:00:57;;;;;;;12.23;6.37;;;;;;;7.18;95.91;101761.34;4937101;28;20230;-74
2021/04/23 00:03:39;;;;;;;12.57;5.80;;;;;;;6.99;96.94;101762.38;4935464;29;20207;-74
2021/04/23 00:06:07;;;;;;;13.27;6.03;;;;;;;7.10;96.99;101754.34;4949600;28;20235;-74
2021/04/23 00:08:32;;;;;;;9.83;5.23;;;;;;;7.26;95.63;101747.56;4934269;29;20192;-74
2021/04/23 00:11:01;;;;;;;8.13;6.03;;;;;;;7.21;95.50;101750.09;4918262;29;20294;-74
2021/04/23 00:13:26;;;;;;;8.83;5.60;;;;;;;7.23;94.68;101753.41;4933675;29;20755;-74
2021/04/23 00:15:52;;;;;;;15.70;6.20;;;;;;;7.23;95.38;101748.81;4933811;29;20231;-75
2021/04/23 00:18:20;;;;;;;14.77;6.03;;;;;;;7.10;95.12;101748.13;4902786;29;20198;-73
2021/04/23 00:20:48;;;;;;;16.10;6.20;;;;;;;7.17;95.80;101746.22;4933773;29;20712;-74
2021/04/23 00:23:14;;;;;;;15.60;5.63;;;;;;;7.41;94.21;101751.53;4933105;29;20211;-74
2021/04/23 00:25:42;;;;;;;8.93;5.50;;;;;;;7.22;94.80;101751.78;4901186;29;20354;-74
2021/04/23 00:28:14;;;;;;;11.23;5.70;;;;;;;7.22;95.67;101754.47;4902433;29;20191;-74
2021/04/23 00:30:45;;;;;;;14.27;6.07;;;;;;;7.14;95.37;101743.94;4917963;29;20227;-74
2021/04/23 00:33:13;;;;;;;10.00;5.90;;;;;;;7.05;96.09;101745.28;4917612;29;20705;-75
2021/04/23 00:35:41;;;;;;;12.33;5.73;;;;;;;7.16;95.83;101742.69;4933028;29;20230;-74
2021/04/23 00:38:09;;;;;;;11.47;5.23;;;;;;;7.05;96.52;101742.56;4918071;29;20230;-74
2021/04/23 00:40:41;;;;;;;11.37;5.37;;;;;;;7.14;96.12;101743.94;4917322;29;20222;-74
2021/04/23 00:43:09;;;;;;;10.23;5.37;;;;;;;7.36;94.28;101743.28;4917020;29;20290;-74
2021/04/23 00:45:35;;;;;;;11.33;5.40;;;;;;;7.28;95.34;101740.06;4948674;28;20232;-75
2021/04/23 00:48:05;;;;;;;9.43;5.27;;;;;;;7.02;96.86;101741.16;4933909;29;20187;-74
2021/04/23 00:50:36;;;;;;;10.40;4.97;;;;;;;7.13;95.58;101747.72;4933019;28;20713;-73
2021/04/23 00:53:05;;;;;;;11.33;5.90;;;;;;;7.15;96.19;101745.59;4932869;29;20215;-75
2021/04/23 00:55:34;;;;;;;10.23;5.60;;;;;;;7.41;94.40;101738.84;4916741;29;20699;-74
2021/04/23 00:58:04;;;;;;;12.43;5.50;;;;;;;7.41;94.12;101741.56;4934840;29;20186;-74
2021/04/23 01:00:34;;;;;;;11.30;5.60;;;;;;;7.31;95.32;101738.56;4910351;28;20262;-74
2021/04/23 01:03:02;;;;;;;12.57;5.83;;;;;;;7.12;96.47;101746.03;4935517;29;20202;-74
2021/04/23 01:05:35;;;;;;;11.80;5.47;;;;;;;6.98;98.29;101733.72;4937158;29;20239;-75
2021/04/23 01:08:02;;;;;;;9.97;4.73;;;;;;;7.07;97.81;101737.78;4908283;29;20194;-76
2021/04/23 01:10:32;;;;;;;13.60;6.13;;;;;;;7.11;97.65;101733.59;4937064;28;20379;-75
2021/04/23 01:13:02;;;;;;;11.67;5.37;;;;;;;7.17;97.95;101735.41;4969510;28;20206;-74
2021/04/23 01:15:33;;;;;;;11.97;5.53;;;;;;;7.14;98.41;101738.53;4952526;29;20234;-75
2021/04/23 01:18:01;;;;;;;12.70;5.53;;;;;;;7.06;99.02;101738.84;4952435;28;20247;-75
2021/04/23 01:20:27;;;;;;;15.00;6.13;;;;;;;6.95;99.42;101739.56;4968012;28;20673;-74
2021/04/23 01:22:55;;;;;;;15.73;5.87;;;;;;;6.89;100.00;101743.16;4951822;29;20285;-74
2021/04/23 01:25:24;;;;;;;10.10;5.97;;;;;;;6.93;100.00;101744.38;4969022;28;20680;-74
2021/04/23 01:27:51;;;;;;;11.40;5.60;;;;;;;7.15;100.00;101745.59;4952092;28;20657;-74
2021/04/23 01:30:20;;;;;;;11.63;5.63;;;;;;;7.01;100.00;101749.47;4951590;28;20561;-75
2021/04/23 01:32:49;;;;;;;11.07;5.37;;;;;;;7.07;100.00;101743.16;4951366;29;20214;-74
2021/04/23 01:35:22;;;;;;;11.67;5.60;;;;;;;7.13;100.00;101742.31;4967167;28;20210;-75
2021/04/23 01:37:50;;;;;;;13.33;5.67;;;;;;;6.98;100.00;101742.66;4936178;29;20200;-74
2021/04/23 01:40:16;;;;;;;13.03;5.30;;;;;;;6.98;100.00;101744.53;4935251;28;20198;-75
2021/04/23 01:42:44;;;;;;;10.27;5.73;;;;;;;6.89;100.00;101743.97;4950903;28;20215;-75
2021/04/23 01:45:15;;;;;;;15.30;6.00;;;;;;;6.95;100.00;101750.38;4967305;28;20246;-74
2021/04/23 01:47:44;;;;;;;13.13;5.43;;;;;;;6.89;100.00;101748.56;4951994;29;20197;-75
2021/04/23 01:50:14;;;;;;;12.43;6.13;;;;;;;7.02;100.00;101745.72;4951304;28;20191;-76
2021/04/23 01:52:46;;;;;;;11.40;5.47;;;;;;;6.96;100.00;101747.44;4935608;29;20203;-75
2021/04/23 01:55:13;;;;;;;13.30;6.30;;;;;;;7.22;100.00;101751.78;4919446;28;20266;-75
2021/04/23 01:57:43;;;;;;;14.37;5.97;;;;;;;7.20;100.00;101751.13;4933842;28;20184;-74
2021/04/23 02:00:12;;;;;;;13.13;5.57;;;;;;;6.99;100.00;101756.97;4916967;29;20296;-75
2021/04/23 02:02:39;;;;;;;14.80;5.93;;;;;;;7.05;100.00;101751.53;4930021;29;20273;-74
2021/04/23 02:05:05;;;;;;;12.90;6.23;;;;;;;7.22;100.00;101757.19;4932436;28;20771;-75
2021/04/23 02:07:31;;;;;;;11.03;5.53;;;;;;;7.14;100.00;101768.25;4921936;29;20188;-74
2021/04/23 02:10:00;;;;;;;15.30;5.37;;;;;;;7.14;100.00;101765.56;4938845;29;20187;-76
2021/04/23 02:12:28;;;;;;;13.27;5.43;;;;;;;7.07;100.00;101765.63;4921019;29;20306;-74
2021/04/23 02:14:53;;;;;;;13.20;5.60;;;;;;;7.08;100.00;101766.44;4907156;29;20211;-74
2021/04/23 02:17:20;;;;;;;16.97;5.23;;;;;;;7.04;100.00;101767.94;4937568;29;20779;-75
2021/04/23 02:19:45;;;;;;;11.30;5.33;;;;;;;6.99;100.00;101767.78;4939882;29;20271;-74
2021/04/23 02:22:15;;;;;;;12.47;5.43;;;;;;;6.98;100.00;101760.75;4921610;29;20790;-75
2021/04/23 02:24:41;;;;;;;13.77;5.63;;;;;;;6.82;100.00;101772.09;4928923;29;20265;-74
2021/04/23 02:27:07;;;;;;;14.97;5.80;;;;;;;7.05;100.00;101766.88;4942889;28;20227;-74
2021/04/23 02:29:35;;;;;;;13.40;5.50;;;;;;;6.96;100.00;101774.47;4939348;29;20190;-74
2021/04/23 02:32:00;;;;;;;9.37;4.63;;;;;;;6.98;100.00;101774.25;4936806;29;20275;-74
2021/04/23 02:34:30;;;;;;;8.40;4.70;;;;;;;7.04;100.00;101779.56;4907051;29;20190;-74
2021/04/23 02:36:58;;;;;;;9.87;5.23;;;;;;;7.02;100.00;101784.38;4922588;29;20237;-74
2021/04/23 02:39:28;;;;;;;9.50;5.17;;;;;;;7.16;99.57;101785.06;4907406;29;20180;-74
2021/04/23 02:41:54;;;;;;;12.20;5.10;;;;;;;7.01;99.95;101784.59;4905723;29;20246;-73
2021/04/23 02:44:20;;;;;;;10.23;5.00;;;;;;;7.09;100.00;101792.44;4953923;29;20222;-74
2021/04/23 02:46:46;;;;;;;9.93;4.70;;;;;;;6.91;100.00;101786.97;4938741;28;20302;-74
2021/04/23 02:49:11;;;;;;;10.33;4.77;;;;;;;7.28;98.26;101798.44;4939487;29;20214;-74
2021/04/23 02:51:39;;;;;;;12.33;4.70;;;;;;;6.93;99.08;101790.28;4937299;29;20286;-74
2021/04/23 02:54:05;;;;;;;13.93;4.67;;;;;;;6.97;99.68;101791.47;4908890;29;20195;-77
2021/04/23 02:56:31;;;;;;;14.70;5.53;;;;;;;6.82;100.00;101796.38;4946624;28;20270;-74
2021/04/23 02:58:57;;;;;;;10.87;4.70;;;;;;;6.71;100.00;101786.31;4922020;29;20654;-74
2021/04/23 03:01:26;;;;;;;13.20;5.57;;;;;;;6.91;100.00;101786.97;4905984;29;20231;-73
2021/04/23 03:03:56;;;;;;;13.40;5.20;;;;;;;6.91;100.00;101789.66;4921577;29;20290;-75
2021/04/23 03:06:24;;;;;;;11.20;5.20;;;;;;;6.79;100.00;101785.19;4905963;29;20605;-74
2021/04/23 03:08:52;;;;;;;14.57;5.40;;;;;;;6.83;100.00;101779.16;4922150;29;20188;-74
2021/04/23 03:11:19;;;;;;;9.23;4.80;;;;;;;6.68;100.00;101784.03;4915210;28;20313;-74
2021/04/23 03:13:49;;;;;;;12.43;5.47;;;;;;;6.73;100.00;101795.00;4945873;29;20262;-74
2021/04/23 03:16:17;;;;;;;12.80;5.30;;;;;;;6.80;100.00;101795.78;4939227;29;20326;-74
2021/04/23 03:18:45;;;;;;;8.73;5.17;;;;;;;6.89;100.00;101794.47;4924964;28;20704;-74
2021/04/23 03:21:14;;;;;;;13.00;4.97;;;;;;;6.84;100.00;101794.28;4923207;29;20227;-74
2021/04/23 03:23:39;;;;;;;8.80;4.93;;;;;;;6.88;100.00;101790.09;4924614;29;20282;-74
2021/04/23 03:26:09;;;;;;;12.30;5.00;;;;;;;6.98;100.00;101804.75;4905435;29;20701;-73
2021/04/23 03:28:40;;;;;;;9.67;4.90;;;;;;;6.80;100.00;101798.47;4911780;29;20187;-73
2021/04/23 03:31:06;;;;;;;8.90;4.70;;;;;;;6.82;100.00;101796.38;4951761;29;20235;-74
2021/04/23 03:33:34;;;;;;;8.43;4.87;;;;;;;7.02;100.00;101799.75;4966746;29;20203;-73
2021/04/23 03:36:04;;;;;;;14.90;4.80;;;;;;;6.87;100.00;101795.72;4951059;29;20231;-74
2021/04/23 03:38:31;;;;;;;12.03;5.00;;;;;;;6.65;100.00;101797.97;4949080;29;20201;-74
2021/04/23 03:41:00;;;;;;;10.07;5.13;;;;;;;6.88;100.00;101806.31;4956413;29;20291;-74
2021/04/23 03:43:29;;;;;;;12.20;5.27;;;;;;;6.82;100.00;101804.50;4933968;29;20238;-74
2021/04/23 03:45:54;;;;;;;10.53;5.30;;;;;;;6.93;100.00;101806.47;4941877;29;20245;-74
2021/04/23 03:48:20;;;;;;;9.63;5.23;;;;;;;6.89;100.00;101807.97;4914328;29;20204;-75
2021/04/23 03:50:48;;;;;;;11.90;4.70;;;;;;;6.84;100.00;101807.78;4931692;29;20226;-74
2021/04/23 03:53:17;;;;;;;9.23;4.97;;;;;;;6.98;100.00;101798.56;4937978;29;20227;-74
2021/04/23 03:55:47;;;;;;;12.53;5.03;;;;;;;6.67;100.00;101806.69;4945626;29;20226;-74
2021/04/23 03:58:16;;;;;;;11.67;4.83;;;;;;;6.88;100.00;101809.00;4954798;29;20745;-74
2021/04/23 04:00:47;;;;;;;11.13;5.10;;;;;;;6.70;100.00;101811.66;4920971;29;20219;-74
2021/04/23 04:03:13;;;;;;;9.43;4.60;;;;;;;6.61;100.00;101810.25;4921966;29;20972;-75
2021/04/23 04:05:38;;;;;;;12.93;5.77;;;;;;;6.87;100.00;101818.16;4933776;29;20227;-74
2021/04/23 04:08:11;;;;;;;12.07;4.37;;;;;;;6.92;100.00;101815.63;4954049;29;20191;-74
2021/04/23 04:10:40;;;;;;;11.07;4.70;;;;;;;6.89;100.00;101816.06;4953814;28;20238;-72
2021/04/23 04:13:06;;;;;;;14.07;4.63;;;;;;;6.77;100.00;101822.38;4953169;29;20211;-74
2021/04/23 04:15:34;;;;;;;9.33;4.70;;;;;;;6.81;99.87;101819.03;4907951;29;20230;-73
2021/04/23 04:18:02;;;;;;;9.90;4.67;;;;;;;6.88;99.68;101824.38;4919779;29;20192;-74
2021/04/23 04:20:32;;;;;;;10.53;4.83;;;;;;;6.80;99.62;101816.56;4935124;28;20299;-74
2021/04/23 04:22:57;;;;;;;10.53;4.77;;;;;;;6.82;99.79;101820.69;4920364;29;20214;-73
2021/04/23 04:25:26;;;;;;;11.67;4.37;;;;;;;6.68;99.82;101819.13;4937722;29;20263;-74
2021/04/23 04:27:54;;;;;;;10.00;5.23;;;;;;;6.68;99.84;101823.69;4936591;29;20216;-75
2021/04/23 04:30:23;;;;;;;10.33;4.70;;;;;;;6.64;100.00;101822.50;4919558;28;20689;-75
2021/04/23 04:32:49;;;;;;;10.97;4.53;;;;;;;6.87;99.43;101818.16;4934736;29;20206;-74
2021/04/23 04:35:15;;;;;;;9.83;4.63;;;;;;;6.85;99.47;101831.06;4952361;28;20175;-74
2021/04/23 04:37:41;;;;;;;16.70;8.80;;;;;;;6.77;99.43;101834.00;4938731;29;20191;-73
2021/04/23 04:40:07;;;;;;;8.80;4.60;;;;;;;6.66;98.66;101832.00;4954195;28;20265;-72
2021/04/23 04:42:34;;;;;;;8.17;4.43;;;;;;;6.67;99.27;101835.56;4936133;29;20214;-75
2021/04/23 04:45:02;;;;;;;11.03;4.70;;;;;;;6.66;99.43;101837.41;4935802;29;20217;-75
2021/04/23 04:47:29;;;;;;;13.83;4.77;;;;;;;6.90;98.00;101832.06;4952020;29;20219;-74
2021/04/23 04:50:02;;;;;;;9.43;4.30;;;;;;;6.97;97.79;101835.50;4937047;29;20218;-74
2021/04/23 04:52:30;;;;;;;8.17;4.73;;;;;;;6.64;98.59;101828.72;4936951;28;20238;-73
2021/04/23 04:54:56;;;;;;;10.60;4.60;;;;;;;6.80;98.51;101833.59;4944469;29;20179;-75
2021/04/23 04:57:21;;;;;;;7.57;3.97;;;;;;;6.80;98.05;101838.97;4922690;29;20251;-73
2021/04/23 04:59:47;;;;;;;9.67;4.23;;;;;;;6.87;97.96;101823.56;4917903;29;20176;-73
2021/04/23 05:02:16;;;;;;;10.33;4.43;;;;;;;6.77;98.08;101831.31;4932160;28;20239;-73
2021/04/23 05:04:42;;;;;;;10.60;4.40;;;;;;;7.02;97.80;101842.97;4933337;29;20324;-76
2021/04/23 05:07:10;;;;;;;8.63;5.07;;;;;;;7.01;97.26;101841.31;4933091;29;20259;-74
2021/04/23 05:09:36;;;;;;;9.50;4.30;;;;;;;7.17;95.73;101848.88;4951054;29;20219;-75
2021/04/23 05:12:05;;;;;;;11.37;4.17;;;;;;;7.07;95.78;101851.22;4947623;28;20244;-74
2021/04/23 05:14:33;;;;;;;10.67;4.57;;;;;;;7.11;95.49;101847.06;4934870;28;20195;-74
2021/04/23 05:17:01;;;;;;;13.10;4.80;;;;;;;7.19;94.90;101854.88;4935490;29;20256;-75
2021/04/23 05:19:27;;;;;;;8.50;4.90;;;;;;;7.28;94.59;101857.88;4920412;29;20188;-75
2021/04/23 05:21:52;;;;;;;10.03;4.80;;;;;;;7.18;94.91;101861.31;4919007;29;21130;-74
2021/04/23 05:24:25;;;;;;;10.67;4.73;;;;;;;7.13;95.88;101874.66;4944417;29;20211;-74
2021/04/23 05:26:53;;;;;;;12.37;4.93;;;;;;;7.24;94.63;101868.56;4917279;29;20254;-74
2021/04/23 05:29:19;;;;;;;10.80;4.57;;;;;;;7.28;94.81;101871.41;4948761;29;20262;-74
2021/04/23 05:31:49;;;;;;;9.80;4.57;;;;;;;7.21;94.77;101871.69;4935314;29;20273;-75
2021/04/23 05:34:26;;;;;;;14.37;4.47;;;;;;;7.12;94.99;101883.81;4951197;28;20254;-73
2021/04/23 05:36:54;;;;;;;12.17;4.30;;;;;;;7.25;95.13;101886.41;4936543;29;20257;-75
2021/04/23 05:39:22;;;;;;;10.37;4.83;;;;;;;7.58;93.48;101888.59;4951263;29;20226;-76
2021/04/23 05:41:48;;;;;;;10.47;4.27;;;;;;;7.85;91.59;101876.44;4949968;28;20661;-76
2021/04/23 05:44:14;;;;;;;11.13;4.60;;;;;;;7.40;91.98;101885.84;4951035;28;20219;-74
2021/04/23 05:46:44;;;;;;;8.67;4.30;;;;;;;7.51;91.55;101887.84;4934070;29;20285;-73
2021/04/23 05:49:09;;;;;;;14.67;4.63;;;;;;;7.43;90.53;101889.97;4935972;29;20245;-74
2021/04/23 05:51:35;;;;;;;9.10;4.50;;;;;;;7.45;90.26;101888.69;4951821;28;20238;-73
2021/04/23 05:54:01;;;;;;;10.67;4.20;;;;;;;7.65;89.34;101896.63;4915380;29;20188;-74
2021/04/23 05:56:26;;;;;;;14.30;5.63;;;;;;;7.71;89.92;101888.47;4931250;29;20229;-74
2021/04/23 05:58:57;;;;;;;9.97;4.30;;;;;;;7.56;88.30;101896.09;4916788;29;20183;-73
2021/04/23 06:01:22;;;;;;;11.07;4.40;;;;;;;7.61;89.94;101893.56;4933117;28;20227;-73
2021/04/23 06:03:50;;;;;;;9.87;3.70;;;;;;;7.57;87.95;101886.94;4916013;29;20254;-73
2021/04/23 06:06:16;;;;;;;10.00;3.87;;;;;;;7.94;87.70;101899.44;4929792;29;20230;-74
2021/04/23 06:08:47;;;;;;;10.40;4.60;;;;;;;7.85;86.75;101906.19;4958396;28;20666;-73
2021/04/23 06:11:20;;;;;;;10.87;4.17;;;;;;;8.07;86.82;101900.13;4916898;29;20608;-74
2021/04/23 06:13:46;;;;;;;10.90;4.00;;;;;;;8.17;85.98;101912.13;4933176;29;20255;-75
2021/04/23 06:16:12;;;;;;;10.23;4.00;;;;;;;7.79;84.88;101917.94;4899683;29;20227;-73
2021/04/23 06:18:38;;;;;;;10.27;4.27;;;;;;;8.00;85.44;101910.19;4916691;29;20179;-75
2021/04/23 06:21:06;;;;;;;10.90;3.53;;;;;;;8.29;83.76;101915.69;4931306;29;20239;-75
2021/04/23 06:23:33;;;;;;;9.07;3.90;;;;;;;8.27;81.77;101917.00;4888789;29;20226;-77
2021/04/23 06:26:00;;;;;;;8.43;3.50;;;;;;;8.18;82.40;101907.53;4915192;29;20231;-74
2021/04/23 06:28:25;;;;;;;10.73;3.47;;;;;;;8.16;83.55;101913.16;4951409;28;20202;-74
2021/04/23 06:30:54;;;;;;;10.87;4.07;;;;;;;8.33;80.26;101922.31;4951115;28;20241;-74
2021/04/23 06:33:22;;;;;;;10.83;3.60;;;;;;;8.19;81.25;101920.84;4951495;28;20305;-74
2021/04/23 06:35:48;;;;;;;10.50;3.53;;;;;;;8.34;80.65;101923.97;4934636;29;20266;-74
2021/04/23 06:38:16;;;;;;;10.03;3.00;;;;;;;8.49;80.94;101919.00;4951033;29;20731;-74
2021/04/23 06:40:42;;;;;;;13.07;4.07;;;;;;;8.50;79.16;101923.38;4934555;29;20294;-73
2021/04/23 06:43:10;;;;;;;11.60;3.90;;;;;;;8.59;78.08;101924.69;4951212;28;20632;-73
2021/04/23 06:45:37;;;;;;;9.00;3.33;;;;;;;8.57;78.07;101924.09;4919115;29;20664;-73
2021/04/23 06:48:03;;;;;;;7.43;2.97;;;;;;;8.42;78.43;101925.56;4951225;29;20663;-75
2021/04/23 06:50:31;;;;;;;9.07;3.43;;;;;;;8.77;77.95;101924.66;4936332;28;20223;-74
2021/04/23 06:52:57;;;;;;;9.37;3.20;;;;;;;8.56;77.08;101933.28;4950010;29;20930;-74
2021/04/23 06:55:25;;;;;;;6.97;3.00;;;;;;;8.27;77.43;101933.22;4952216;28;20219;-74
2021/04/23 06:57:53;;;;;;;11.70;3.23;;;;;;;8.57;77.88;101934.91;4904295;29;20238;-74
2021/04/23 07:00:24;;;;;;;11.57;3.20;;;;;;;8.89;76.04;101938.00;4918402;28;20184;-75
2021/04/23 07:02:53;;;;;;;14.07;3.40;;;;;;;9.36;72.06;101942.53;4919165;29;20262;-73
2021/04/23 07:05:18;;;;;;;12.17;3.90;;;;;;;9.18;72.61;101955.34;4918750;28;20226;-74
2021/04/23 07:07:44;;;;;;;10.57;3.20;;;;;;;9.17;71.35;101948.25;4935138;29;20196;-74
2021/04/23 07:10:14;;;;;;;10.10;3.37;;;;;;;9.60;69.99;101951.28;4934294;28;20190;-73
2021/04/23 07:12:44;;;;;;;9.93;3.33;;;;;;;9.35;68.43;101957.13;4934406;29;20215;-72
2021/04/23 07:15:12;;;;;;;6.33;2.20;;;;;;;9.39;67.62;101952.88;4950670;28;20187;-73
2021/04/23 07:17:40;;;;;;;10.10;2.73;;;;;;;9.40;65.83;101954.56;4934594;29;20180;-73
2021/04/23 07:20:06;;;;;;;8.03;2.33;;;;;;;9.02;66.52;101964.94;4934831;29;20215;-75
2021/04/23 07:22:31;;;;;;;10.13;2.77;;;;;;;9.15;66.72;101956.59;4933852;29;20223;-74
2021/04/23 07:24:57;;;;;;;10.00;2.40;;;;;;;9.49;65.73;101953.16;4942326;29;20735;-73
2021/04/23 07:27:23;;;;;;;7.23;2.17;;;;;;;9.29;63.71;101955.34;4937913;28;20431;-73
2021/04/23 07:29:48;;;;;;;7.67;2.37;;;;;;;9.34;64.56;101958.19;4934318;29;20191;-72
2021/04/23 07:32:16;;;;;;;7.27;2.60;;;;;;;9.25;65.20;101962.31;4933519;29;20259;-75
2021/04/23 07:34:45;;;;;;;8.43;2.30;;;;;;;9.05;64.75;101967.19;4934933;29;20211;-74
2021/04/23 07:37:10;;;;;;;9.00;2.33;;;;;;;9.09;66.85;101968.38;4918222;29;20231;-73
2021/04/23 07:39:38;;;;;;;10.47;2.33;;;;;;;9.62;64.25;101959.19;4919442;29;20662;-74
2021/04/23 07:42:06;;;;;;;8.80;2.23;;;;;;;9.92;62.83;101966.19;4933520;28;20231;-73
2021/04/23 07:44:32;;;;;;;7.40;2.30;;;;;;;10.06;63.19;101963.00;4933980;29;20228;-73
2021/04/23 07:46:58;;;;;;;8.63;2.33;;;;;;;10.01;61.54;101971.03;4951900;28;20234;-74
2021/04/23 07:49:24;;;;;;;8.87;2.20;;;;;;;9.54;62.47;101961.41;4953806;29;20191;-73
2021/04/23 07:51:49;;;;;;;11.30;2.30;;;;;;;9.57;61.53;101959.88;4920694;29;20226;-74
2021/04/23 07:54:17;;;;;;;7.07;2.20;;;;;;;9.54;63.08;101966.84;4955914;28;20199;-73
2021/04/23 07:56:43;;;;;;;7.97;2.13;;;;;;;9.37;62.38;101966.69;4944875;29;20218;-73
2021/04/23 07:59:08;;;;;;;5.37;2.03;;;;;;;9.36;63.43;101964.22;4953372;29;20191;-74
2021/04/23 08:01:34;;;;;;;5.50;2.13;;;;;;;9.38;62.73;101968.34;4943929;28;20219;-73
2021/04/23 08:04:05;;;;;;;8.90;2.73;;;;;;;9.72;61.93;101975.69;4923444;29;20222;-74
2021/04/23 08:06:33;;;;;;;7.27;2.63;;;;;;;9.85;59.64;101976.28;4955159;28;20247;-74
2021/04/23 08:09:00;;;;;;;7.93;1.80;;;;;;;9.82;59.11;101984.09;4935987;29;20190;-74
2021/04/23 08:11:28;;;;;;;9.20;2.40;;;;;;;9.88;59.57;101975.84;4937034;28;20231;-73
2021/04/23 08:13:54;;;;;;;7.30;2.10;;;;;;;9.79;60.46;101977.25;4918007;29;20195;-74
2021/04/23 08:16:20;;;;;;;6.53;1.77;;;;;;;9.57;58.75;101978.88;4901575;29;20258;-73
2021/04/23 08:18:52;;;;;;;9.97;2.20;;;;;;;9.69;60.45;101977.00;4933637;29;20933;-76
2021/04/23 08:21:19;;;;;;;5.37;1.60;;;;;;;9.96;58.41;101972.78;4933062;29;20223;-74
2021/04/23 08:23:47;;;;;;;8.07;2.23;;;;;;;10.43;59.49;101967.91;4936191;29;20179;-74
2021/04/23 08:26:22;;;;;;;7.27;2.13;;;;;;;10.29;57.73;101983.88;4953110;28;20222;-73
2021/04/23 08:28:47;;;;;;;10.47;2.30;;;;;;;10.13;57.56;101979.19;4942503;28;20282;-74
2021/04/23 08:31:13;;;;;;;9.97;2.07;;;;;;;10.37;57.20;101987.88;4932758;28;20246;-74
2021/04/23 08:33:39;;;;;;;5.57;1.90;;;;;;;10.25;55.44;101993.56;4946594;29;20215;-73
2021/04/23 08:36:04;;;;;;;6.57;1.70;;;;;;;9.97;55.75;101988.03;4967956;28;20333;-75
2021/04/23 08:38:32;;;;;;;9.73;2.30;;;;;;;10.30;56.49;101982.81;4936365;29;20618;-74
2021/04/23 08:41:03;;;;;;;4.77;1.70;;;;;;;10.77;56.16;101973.25;4934893;28;20219;-75
2021/04/23 08:43:31;;;;;;;9.17;2.47;;;;;;;11.32;55.34;101971.63;4964668;28;20221;-74
2021/04/23 08:45:56;;;;;;;7.17;1.90;;;;;;;11.79;54.51;101973.81;4964165;28;20226;-74
2021/04/23 08:48:22;;;;;;;8.13;2.10;;;;;;;11.06;56.07;101982.25;4935490;29;20191;-73
2021/04/23 08:50:50;;;;;;;7.03;2.10;;;;;;;10.89;55.73;101986.81;4904680;29;20250;-74
2021/04/23 08:53:19;;;;;;;9.50;2.27;;;;;;;11.00;55.58;101977.78;4937652;29;20294;-74
2021/04/23 08:55:45;;;;;;;11.03;2.03;;;;;;;10.93;56.36;101987.97;4942912;28;20229;-73
2021/04/23 08:58:12;;;;;;;9.07;2.47;;;;;;;10.80;55.38;101989.09;4918497;29;20190;-72
2021/04/23 09:00:40;;;;;;;8.10;2.20;;;;;;;11.01;54.28;101974.84;4917802;29;20234;-73
2021/04/23 09:03:08;;;;;;;7.57;1.80;;;;;;;11.04;54.29;101973.50;4932119;29;20301;-73
2021/04/23 09:05:36;;;;;;;7.53;2.10;;;;;;;11.25;53.15;101977.19;4918987;29;20255;-74
2021/04/23 09:08:06;;;;;;;6.20;1.53;;;;;;;10.51;55.28;101983.84;4935217;29;20665;-73
2021/04/23 09:10:33;;;;;;;8.17;2.00;;;;;;;10.82;54.97;101991.56;4918520;29;20701;-75
2021/04/23 09:13:11;;;;;;;5.07;1.67;;;;;;;10.75;54.19;101991.72;4957062;28;20207;-74
2021/04/23 09:15:42;;;;;;;6.27;1.87;;;;;;;10.45;52.85;101989.41;4943972;28;20226;-74
2021/04/23 09:18:17;;;;;;;6.87;1.80;;;;;;;10.78;53.82;101985.78;4951954;28;20669;-76
2021/04/23 09:20:47;;;;;;;9.17;2.03;;;;;;;10.92;53.90;101987.16;4935691;29;20226;-76
2021/04/23 09:23:22;;;;;;;9.63;2.13;;;;;;;11.43;53.42;101982.41;4952928;28;20290;-76
2021/04/23 09:25:52;;;;;;;11.87;2.30;;;;;;;11.27;53.22;101980.50;4942679;29;20291;-76
2021/04/23 09:28:53;;;;;;;7.67;2.00;;;;;;;11.39;54.34;101994.88;4936074;29;20670;-76
2021/04/23 09:31:26;;;;;;;8.60;2.20;;;;;;;11.09;51.35;101987.22;4900967;29;20232;-75
2021/04/23 09:34:00;;;;;;;11.00;2.37;;;;;;;10.85;51.75;101993.78;4917864;29;20737;-75
2021/04/23 09:36:25;;;;;;;8.90;2.00;;;;;;;11.58;51.93;101982.72;4920980;29;20760;-74
2021/04/23 09:39:06;;;;;;;8.77;2.37;;;;;;;12.12;53.36;101972.69;4950542;29;20195;-74
2021/04/23 09:41:34;;;;;;;5.83;2.03;;;;;;;11.84;50.93;101992.94;4947461;28;20286;-74
2021/04/23 09:43:59;;;;;;;4.27;1.60;;;;;;;11.26;51.55;101992.47;4934693;28;20274;-74
2021/04/23 09:46:36;;;;;;;7.27;1.80;;;;;;;11.44;50.65;101992.25;4945105;29;20283;-75
2021/04/23 09:49:17;;;;;;;8.03;2.00;;;;;;;11.49;50.15;101997.78;4956093;28;20183;-74
2021/04/23 09:51:47;;;;;;;6.47;2.00;;;;;;;11.74;50.14;101981.88;4938732;29;20282;-77
2021/04/23 09:54:21;;;;;;;6.77;1.93;;;;;;;11.96;48.61;101987.16;4952338;28;20195;-74
2021/04/23 09:56:47;;;;;;;6.47;1.90;;;;;;;11.27;48.92;101991.38;4942934;29;20633;-75
2021/04/23 09:59:18;;;;;;;8.50;1.97;;;;;;;11.45;50.14;101993.91;4933357;29;20196;-75
2021/04/23 10:02:03;;;;;;;7.53;2.03;;;;;;;11.82;48.47;101997.81;4948260;28;20235;-74
2021/04/23 10:04:35;;;;;;;8.17;2.20;;;;;;;12.08;48.95;102001.50;4915092;29;20235;-74
2021/04/23 10:07:07;;;;;;;5.30;1.60;;;;;;;11.88;46.80;102000.38;4950059;28;20257;-76
2021/04/23 10:09:49;;;;;;;5.50;2.00;;;;;;;11.63;48.29;102001.88;4915476;28;20257;-75
2021/04/23 10:12:33;;;;;;;9.47;2.23;;;;;;;11.91;50.04;101996.34;4949045;28;20231;-75
2021/04/23 10:15:06;;;;;;;9.10;2.50;;;;;;;12.45;48.67;101989.81;4942886;29;20266;-74
2021/04/23 10:17:37;;;;;;;11.67;1.87;;;;;;;12.79;49.30;101985.88;4958548;28;20230;-75
2021/04/23 10:20:04;;;;;;;7.93;2.27;;;;;;;13.29;47.08;101988.13;4936453;29;20784;-75
2021/04/23 10:22:30;;;;;;;7.30;2.00;;;;;;;12.38;47.25;101996.50;4918980;29;20234;-75
2021/04/23 10:24:55;;;;;;;10.13;2.00;;;;;;;12.14;47.74;101994.22;4930734;29;20836;-74
2021/04/23 10:27:23;;;;;;;6.43;2.03;;;;;;;12.43;47.06;101988.41;4932052;29;20770;-75
2021/04/23 10:29:51;;;;;;;6.23;1.93;;;;;;;12.47;44.33;101984.09;4950299;28;20187;-75
2021/04/23 10:32:17;;;;;;;7.13;2.10;;;;;;;12.19;44.87;101986.97;4935071;29;20246;-75
2021/04/23 10:34:43;;;;;;;3.97;1.70;;;;;;;12.04;44.74;101992.19;4952460;29;20180;-75
2021/04/23 10:37:11;;;;;;;7.80;2.17;;;;;;;12.34;46.03;101979.84;4952164;29;20283;-75
2021/04/23 10:39:43;;;;;;;7.43;2.00;;;;;;;12.67;46.73;101978.91;4952330;29;20308;-74
2021/04/23 10:42:41;;;;;;;10.07;2.20;;;;;;;13.26;45.05;101971.44;4935249;29;20238;-75
2021/04/23 10:45:33;;;;;;;8.23;2.10;;;;;;;13.47;45.81;101982.31;4941286;28;20239;-75
2021/04/23 10:47:58;;;;;;;11.07;2.50;;;;;;;12.80;46.51;101985.66;4952710;29;20754;-73
2021/04/23 10:50:39;;;;;;;8.03;2.30;;;;;;;12.22;47.84;101986.47;4920981;28;20769;-74
2021/04/23 10:53:10;;;;;;;7.80;2.10;;;;;;;12.47;47.44;101989.53;4922884;29;20215;-73
2021/04/23 10:55:42;;;;;;;6.03;1.70;;;;;;;12.73;44.05;101974.09;4954510;28;20226;-75
2021/04/23 10:58:09;;;;;;;7.57;2.10;;;;;;;12.56;43.42;101983.41;4945875;29;20203;-76
2021/04/23 11:00:45;;;;;;;4.27;1.90;;;;;;;12.80;42.69;101980.22;4944358;28;20283;-74
2021/04/23 11:03:20;;;;;;;5.97;1.73;;;;;;;13.18;42.23;101975.44;4944302;29;20207;-74
2021/04/23 11:05:46;;;;;;;4.83;1.90;;;;;;;12.75;42.04;101971.94;4948233;29;20237;-76
2021/04/23 11:08:12;;;;;;;8.23;1.93;;;;;;;13.34;41.85;101976.44;4942208;29;20222;-74
2021/04/23 11:11:08;;;;;;;5.17;1.77;;;;;;;13.85;41.96;101974.72;4938578;29;20239;-75
2021/04/23 11:13:36;;;;;;;6.73;2.03;;;;;;;13.48;42.79;101973.88;4948736;29;20242;-74
2021/04/23 11:16:26;;;;;;;7.50;2.20;;;;;;;13.14;40.73;101976.22;4967166;28;20219;-75
2021/04/23 11:18:55;;;;;;;5.27;1.90;;;;;;;13.24;40.82;101969.00;4942241;29;20199;-75
2021/04/23 11:21:27;;;;;;;4.83;2.00;;;;;;;13.58;40.04;101981.31;4942036;29;20234;-74
2021/04/23 11:24:11;;;;;;;5.57;2.83;;;;;;;13.62;37.88;101975.06;4956004;29;20268;-75
2021/04/23 11:26:55;;;;;;;4.53;1.67;;;;;;;13.09;38.98;101976.16;4953995;29;20231;-76
2021/04/23 11:29:50;;;;;;;6.13;1.83;;;;;;;13.21;38.68;101972.22;4941400;29;20191;-75
2021/04/23 11:32:22;;;;;;;6.77;1.80;;;;;;;13.64;39.47;101959.25;4950863;28;20238;-75